createdAt,value
2023-04-16T00:00:52.169Z,6.10
2023-04-16T00:06:11.879Z,7.00
2023-04-16T00:11:15.530Z,5.80
2023-04-16T00:16:19.078Z,7.10
2023-04-16T00:21:22.400Z,6.60
2023-04-16T00:26:25.851Z,7.30
2023-04-16T00:31:31.598Z,6.70
2023-04-16T00:36:35.242Z,7.40
2023-04-16T00:41:39.005Z,7.80
2023-04-16T00:46:43.146Z,7.10
2023-04-16T00:51:46.970Z,6.70
2023-04-16T00:56:51.543Z,6.70
2023-04-16T01:01:55.045Z,6.00
2023-04-16T01:06:59.272Z,8.20
2023-04-16T01:12:03.631Z,5.70
2023-04-16T01:17:10.084Z,5.30
2023-04-16T01:22:13.560Z,7.60
2023-04-16T01:27:19.334Z,5.30
2023-04-16T01:32:48.051Z,6.60
2023-04-16T01:37:52.170Z,6.20
2023-04-16T01:42:57.900Z,6.40
2023-04-16T01:48:01.419Z,6.30
2023-04-16T01:53:05.318Z,6.40
2023-04-16T01:58:11.165Z,4.80
2023-04-16T02:03:17.783Z,7.00
2023-04-16T02:08:24.477Z,6.30
2023-04-16T02:13:33.766Z,6.50
2023-04-16T02:19:07.146Z,6.20
2023-04-16T02:24:12.202Z,6.40
2023-04-16T02:29:35.936Z,5.90
2023-04-16T02:35:00.007Z,7.40
2023-04-16T02:40:07.102Z,6.80
2023-04-16T02:45:22.597Z,7.50
2023-04-16T02:50:40.228Z,9.70
2023-04-16T02:55:55.904Z,8.10
2023-04-16T03:01:19.540Z,8.50
2023-04-16T03:06:38.840Z,10.20
2023-04-16T03:11:53.569Z,11.40
2023-04-16T03:16:57.942Z,12.60
2023-04-16T03:22:01.324Z,11.50
2023-04-16T03:27:07.279Z,11.60
2023-04-16T03:32:12.661Z,11.40
2023-04-16T03:37:16.270Z,11.80
2023-04-16T03:42:22.668Z,12.20
2023-04-16T03:47:34.987Z,12.50
2023-04-16T03:52:39.248Z,11.70
2023-04-16T03:57:42.634Z,10.60
2023-04-16T04:02:49.195Z,11.00
2023-04-16T04:07:58.100Z,11.50
2023-04-16T04:13:22.028Z,13.00
2023-04-16T04:18:26.084Z,11.40
2023-04-16T04:23:29.658Z,10.50
2023-04-16T04:28:33.971Z,11.20
2023-04-16T04:33:37.709Z,11.80
2023-04-16T04:38:41.063Z,11.00
2023-04-16T04:43:44.527Z,10.60
2023-04-16T04:48:48.552Z,9.60
2023-04-16T04:53:52.661Z,9.90
2023-04-16T04:58:56.409Z,12.90
2023-04-16T05:04:00.544Z,11.50
2023-04-16T05:09:04.033Z,9.70
2023-04-16T05:14:08.302Z,11.10
2023-04-16T05:19:12.029Z,10.00
2023-04-16T05:24:15.874Z,11.40
2023-04-16T05:29:22.172Z,11.30
2023-04-16T05:34:26.213Z,11.40
2023-04-16T05:39:32.059Z,11.00
2023-04-16T05:44:35.595Z,11.90
2023-04-16T05:49:54.185Z,13.90
2023-04-16T05:55:01.666Z,11.20
2023-04-16T06:00:06.360Z,8.40
2023-04-16T06:05:15.424Z,10.60
2023-04-16T06:10:19.007Z,11.10
2023-04-16T06:15:30.123Z,11.60
2023-04-16T06:20:33.659Z,10.10
2023-04-16T06:25:48.232Z,12.20
2023-04-16T06:30:51.685Z,11.50
2023-04-16T06:36:00.311Z,11.10
2023-04-16T06:41:10.948Z,13.70
2023-04-16T06:46:14.709Z,10.30
2023-04-16T06:51:21.947Z,11.50
2023-04-16T06:56:28.032Z,10.90
2023-04-16T07:02:12.478Z,9.80
2023-04-16T07:07:15.976Z,10.10
2023-04-16T07:12:34.025Z,9.70
2023-04-16T07:17:37.607Z,8.60
2023-04-16T07:22:41.397Z,10.20
2023-04-16T07:27:44.971Z,9.60
2023-04-16T07:32:48.566Z,9.70
2023-04-16T07:37:52.168Z,11.80
2023-04-16T07:42:56.326Z,9.70
2023-04-16T07:47:59.746Z,10.50
2023-04-16T07:53:03.544Z,10.50
2023-04-16T07:58:07.999Z,13.90
2023-04-16T08:03:16.456Z,9.90
2023-04-16T08:08:20.114Z,8.20
2023-04-16T08:13:24.152Z,9.30
2023-04-16T08:18:27.494Z,12.00
2023-04-16T08:23:51.522Z,12.50
2023-04-16T08:28:54.812Z,15.30
2023-04-16T08:33:58.112Z,12.90
2023-04-16T08:39:03.945Z,10.00
2023-04-16T08:44:10.180Z,10.40
2023-04-16T08:49:18.332Z,8.90
2023-04-16T08:55:03.618Z,10.90
2023-04-16T09:00:09.019Z,9.00
2023-04-16T09:05:20.776Z,8.60
2023-04-16T09:10:27.196Z,10.30
2023-04-16T09:15:31.479Z,8.70
2023-04-16T09:20:36.367Z,9.10
2023-04-16T09:25:42.257Z,8.70
2023-04-16T09:30:45.656Z,8.40
2023-04-16T09:35:53.075Z,7.30
2023-04-16T09:41:09.159Z,8.00
2023-04-16T09:46:13.071Z,8.30
2023-04-16T09:51:16.544Z,8.20
2023-04-16T09:56:25.201Z,8.20
2023-04-16T10:01:31.060Z,8.40
2023-04-16T10:06:36.564Z,9.00
2023-04-16T10:11:40.746Z,8.20
2023-04-16T10:16:54.901Z,8.80
2023-04-16T10:21:59.303Z,8.90
2023-04-16T10:27:02.985Z,8.50
2023-04-16T10:32:29.017Z,9.60
2023-04-16T10:37:34.688Z,8.30
2023-04-16T10:42:41.797Z,8.60
2023-04-16T10:47:56.605Z,8.70
2023-04-16T10:53:22.925Z,9.10
2023-04-16T10:58:35.386Z,9.00
2023-04-16T11:03:42.955Z,7.90
2023-04-16T11:08:54.562Z,7.90
2023-04-16T11:13:59.198Z,8.80
2023-04-16T11:19:02.576Z,8.20
2023-04-16T11:24:05.970Z,8.30
2023-04-16T11:29:17.650Z,8.80
2023-04-16T11:34:21.477Z,11.90
2023-04-16T11:39:25.004Z,9.20
2023-04-16T11:44:29.584Z,8.40
2023-04-16T11:49:33.324Z,7.90
2023-04-16T11:54:38.106Z,8.40
2023-04-16T12:00:01.812Z,8.50
2023-04-16T12:05:37.358Z,8.60
2023-04-16T12:10:54.771Z,8.40
2023-04-16T12:16:02.102Z,8.40
2023-04-16T12:21:08.110Z,8.70
2023-04-16T12:26:12.372Z,7.20
2023-04-16T12:31:38.435Z,10.70
2023-04-16T12:36:43.039Z,6.60
2023-04-16T12:41:46.417Z,8.60
2023-04-16T12:46:49.790Z,7.60
2023-04-16T12:51:53.158Z,8.20
2023-04-16T12:56:57.074Z,8.90
2023-04-16T13:02:02.449Z,8.10
2023-04-16T13:07:06.217Z,7.90
2023-04-16T13:12:09.532Z,9.70
2023-04-16T13:17:12.877Z,9.00
2023-04-16T13:22:16.166Z,7.00
2023-04-16T13:27:20.393Z,8.10
2023-04-16T13:32:24.047Z,8.00
2023-04-16T13:37:27.330Z,6.70
2023-04-16T13:42:30.701Z,7.30
2023-04-16T13:47:34.126Z,8.70
2023-04-16T13:52:37.460Z,7.50
2023-04-16T13:57:41.482Z,8.30
2023-04-16T14:02:49.044Z,10.60
2023-04-16T14:07:52.870Z,10.20
2023-04-16T14:12:57.565Z,13.00
2023-04-16T14:18:04.256Z,10.00
2023-04-16T14:23:07.765Z,9.50
2023-04-16T14:28:11.664Z,10.90
2023-04-16T14:33:16.004Z,9.90
2023-04-16T14:38:19.671Z,10.10
2023-04-16T14:43:23.008Z,10.10
2023-04-16T14:48:26.452Z,10.00
2023-04-16T14:53:50.038Z,9.60
2023-04-16T14:58:53.344Z,10.60
2023-04-16T15:03:57.499Z,12.70
2023-04-16T15:09:05.184Z,9.40
2023-04-16T15:14:08.573Z,10.70
2023-04-16T15:19:12.561Z,9.40
2023-04-16T15:24:16.015Z,8.80
2023-04-16T15:29:19.447Z,8.80
2023-04-16T15:34:22.795Z,9.20
2023-04-16T15:39:26.102Z,8.50
2023-04-16T15:44:31.329Z,8.80
2023-04-16T15:49:35.153Z,11.20
2023-04-16T15:54:38.476Z,8.60
2023-04-16T15:59:42.699Z,9.00
2023-04-16T16:04:48.373Z,9.30
2023-04-16T16:09:53.165Z,8.20
2023-04-16T16:14:56.874Z,9.90
2023-04-16T16:20:00.440Z,8.70
2023-04-16T16:25:04.456Z,9.60
2023-04-16T16:30:08.911Z,9.50
2023-04-16T16:35:12.761Z,8.70
2023-04-16T16:40:16.192Z,9.70
2023-04-16T16:45:27.236Z,10.90
2023-04-16T16:50:33.386Z,10.30
2023-04-16T16:55:36.793Z,9.20
2023-04-16T17:00:40.506Z,9.10
2023-04-16T17:06:02.332Z,9.70
2023-04-16T17:16:09.208Z,11.10
2023-04-16T17:21:14.027Z,10.90
2023-04-16T17:26:18.497Z,10.30
2023-04-16T17:31:22.688Z,10.10
2023-04-16T17:36:27.320Z,11.60
2023-04-16T17:41:31.122Z,12.80
2023-04-16T17:46:34.933Z,22.90
2023-04-16T17:51:38.670Z,14.70
2023-04-16T17:56:42.229Z,21.10
2023-04-16T18:01:49.774Z,26.10
2023-04-16T18:07:14.757Z,21.70
2023-04-16T18:12:18.383Z,24.50
2023-04-16T18:17:24.792Z,17.50
2023-04-16T18:22:28.750Z,23.10
2023-04-16T18:27:32.383Z,22.70
2023-04-16T18:32:37.339Z,20.40
2023-04-16T18:38:14.399Z,16.40
2023-04-16T18:43:28.975Z,21.20
2023-04-16T18:48:48.266Z,15.20
2023-04-16T18:54:28.337Z,16.70
2023-04-16T18:59:31.804Z,17.90
2023-04-16T19:05:15.552Z,16.20
2023-04-16T19:15:24.763Z,14.40
2023-04-16T19:20:33.646Z,17.20
2023-04-16T19:25:37.090Z,18.30
2023-04-16T19:30:40.962Z,17.70
2023-04-16T19:35:54.787Z,18.40
2023-04-16T19:40:58.276Z,16.90
2023-04-16T19:46:01.693Z,19.00
2023-04-16T19:51:05.745Z,17.10
2023-04-16T19:56:09.364Z,19.80
2023-04-16T20:01:12.762Z,16.30
2023-04-16T20:06:17.768Z,18.80
2023-04-16T20:11:31.058Z,19.50
2023-04-16T20:16:35.230Z,18.50
2023-04-16T20:21:41.495Z,19.40
2023-04-16T20:26:44.924Z,19.40
2023-04-16T20:31:54.276Z,19.20
2023-04-16T20:36:58.182Z,16.80
2023-04-16T20:42:04.445Z,18.90
2023-04-16T20:47:07.856Z,19.20
2023-04-16T20:52:11.501Z,19.30
2023-04-16T20:57:14.965Z,21.10
2023-04-16T21:02:18.548Z,20.80
2023-04-16T21:07:32.439Z,20.60
2023-04-16T21:12:36.601Z,21.50
2023-04-16T21:17:40.098Z,20.40
2023-04-16T21:22:43.481Z,19.20
2023-04-16T21:27:47.148Z,19.70
2023-04-16T21:33:14.765Z,24.30
2023-04-16T21:38:18.723Z,20.70
2023-04-16T21:43:23.114Z,22.40
2023-04-16T21:48:28.598Z,21.50
2023-04-16T21:53:34.777Z,22.30
2023-04-16T21:58:38.361Z,22.20
2023-04-16T22:03:42.248Z,24.00
2023-04-16T22:08:50.263Z,22.60
2023-04-16T22:13:57.957Z,21.80
2023-04-16T22:19:07.466Z,21.40
2023-04-16T22:24:11.112Z,22.80
2023-04-16T22:29:14.490Z,25.00
2023-04-16T22:34:20.333Z,21.10
2023-04-16T22:39:34.953Z,22.30
2023-04-16T22:44:38.501Z,21.70
2023-04-16T22:49:42.227Z,23.40
2023-04-16T22:54:47.818Z,23.70
2023-04-16T23:00:21.722Z,23.70
2023-04-16T23:05:26.002Z,21.50
2023-04-16T23:10:32.701Z,22.00
2023-04-16T23:15:39.273Z,21.00
2023-04-16T23:20:42.827Z,24.60
2023-04-16T23:25:46.173Z,23.30
2023-04-16T23:30:55.176Z,24.30
2023-04-16T23:36:18.873Z,23.50
2023-04-16T23:41:23.778Z,23.80
2023-04-16T23:46:30.135Z,25.30
2023-04-16T23:51:33.750Z,26.70
2023-04-16T23:56:39.478Z,27.20
